sensor_id;sensor_type;location;lat;lon;timestamp;P1;durP1;ratioP1;P2;durP2;ratioP2
15665;SDS011;20725;51.196;3.510;2023-08-08T00:01:17;10.20;;;5.10;;
15665;SDS011;20725;51.196;3.510;2023-08-08T00:03:45;11.40;;;5.17;;
15665;SDS011;20725;51.196;3.510;2023-08-08T00:06:21;15.20;;;5.20;;
15665;SDS011;20725;51.196;3.510;2023-08-08T00:08:56;22.03;;;5.43;;
15665;SDS011;20725;51.196;3.510;2023-08-08T00:11:37;24.67;;;5.60;;
15665;SDS011;20725;51.196;3.510;2023-08-08T00:14:17;15.83;;;5.53;;
15665;SDS011;20725;51.196;3.510;2023-08-08T00:16:48;15.50;;;5.40;;
15665;SDS011;20725;51.196;3.510;2023-08-08T00:19:32;17.77;;;5.90;;
15665;SDS011;20725;51.196;3.510;2023-08-08T00:22:03;12.93;;;5.60;;
15665;SDS011;20725;51.196;3.510;2023-08-08T00:24:38;15.67;;;5.73;;
15665;SDS011;20725;51.196;3.510;2023-08-08T00:27:20;14.93;;;6.10;;
15665;SDS011;20725;51.196;3.510;2023-08-08T00:30:15;19.50;;;6.00;;
15665;SDS011;20725;51.196;3.510;2023-08-08T00:33:10;19.67;;;5.73;;
15665;SDS011;20725;51.196;3.510;2023-08-08T00:35:51;25.47;;;6.17;;
15665;SDS011;20725;51.196;3.510;2023-08-08T00:38:19;15.97;;;6.07;;
15665;SDS011;20725;51.196;3.510;2023-08-08T00:40:50;16.80;;;6.77;;
15665;SDS011;20725;51.196;3.510;2023-08-08T00:43:37;16.20;;;6.53;;
15665;SDS011;20725;51.196;3.510;2023-08-08T00:46:07;17.10;;;5.80;;
15665;SDS011;20725;51.196;3.510;2023-08-08T00:48:41;18.57;;;6.70;;
15665;SDS011;20725;51.196;3.510;2023-08-08T00:51:22;24.53;;;6.87;;
15665;SDS011;20725;51.196;3.510;2023-08-08T00:54:00;18.63;;;6.77;;
15665;SDS011;20725;51.196;3.510;2023-08-08T00:56:38;18.63;;;6.23;;
15665;SDS011;20725;51.196;3.510;2023-08-08T00:59:15;19.83;;;7.00;;
15665;SDS011;20725;51.196;3.510;2023-08-08T01:01:47;15.23;;;6.03;;
15665;SDS011;20725;51.196;3.510;2023-08-08T01:04:27;16.00;;;6.53;;
15665;SDS011;20725;51.196;3.510;2023-08-08T01:07:04;17.17;;;5.93;;
15665;SDS011;20725;51.196;3.510;2023-08-08T01:10:03;16.50;;;6.20;;
15665;SDS011;20725;51.196;3.510;2023-08-08T01:12:40;21.13;;;7.53;;
15665;SDS011;20725;51.196;3.510;2023-08-08T01:15:18;17.17;;;6.67;;
15665;SDS011;20725;51.196;3.510;2023-08-08T01:18:03;19.67;;;6.40;;
15665;SDS011;20725;51.196;3.510;2023-08-08T01:20:31;20.47;;;6.60;;
15665;SDS011;20725;51.196;3.510;2023-08-08T01:23:09;17.43;;;6.97;;
15665;SDS011;20725;51.196;3.510;2023-08-08T01:25:39;17.53;;;6.57;;
15665;SDS011;20725;51.196;3.510;2023-08-08T01:28:08;19.83;;;6.70;;
15665;SDS011;20725;51.196;3.510;2023-08-08T01:30:53;22.97;;;7.20;;
15665;SDS011;20725;51.196;3.510;2023-08-08T01:33:30;26.57;;;7.10;;
15665;SDS011;20725;51.196;3.510;2023-08-08T01:36:07;19.63;;;7.97;;
15665;SDS011;20725;51.196;3.510;2023-08-08T01:38:40;16.63;;;6.67;;
15665;SDS011;20725;51.196;3.510;2023-08-08T01:41:21;18.10;;;7.20;;
15665;SDS011;20725;51.196;3.510;2023-08-08T01:43:59;12.97;;;6.47;;
15665;SDS011;20725;51.196;3.510;2023-08-08T01:46:39;17.20;;;6.67;;
15665;SDS011;20725;51.196;3.510;2023-08-08T01:49:07;19.10;;;7.00;;
15665;SDS011;20725;51.196;3.510;2023-08-08T01:51:35;22.70;;;6.57;;
15665;SDS011;20725;51.196;3.510;2023-08-08T01:54:03;17.13;;;6.27;;
15665;SDS011;20725;51.196;3.510;2023-08-08T01:56:48;21.73;;;6.70;;
15665;SDS011;20725;51.196;3.510;2023-08-08T01:59:22;13.07;;;6.60;;
15665;SDS011;20725;51.196;3.510;2023-08-08T02:02:24;18.73;;;6.93;;
15665;SDS011;20725;51.196;3.510;2023-08-08T02:05:03;16.47;;;6.33;;
15665;SDS011;20725;51.196;3.510;2023-08-08T02:07:37;17.20;;;6.40;;
15665;SDS011;20725;51.196;3.510;2023-08-08T02:10:15;18.27;;;6.67;;
15665;SDS011;20725;51.196;3.510;2023-08-08T02:12:47;16.37;;;6.53;;
15665;SDS011;20725;51.196;3.510;2023-08-08T02:15:26;18.77;;;6.40;;
15665;SDS011;20725;51.196;3.510;2023-08-08T02:21:04;18.03;;;7.00;;
15665;SDS011;20725;51.196;3.510;2023-08-08T02:24:17;17.43;;;6.37;;
15665;SDS011;20725;51.196;3.510;2023-08-08T02:27:16;18.07;;;6.23;;
15665;SDS011;20725;51.196;3.510;2023-08-08T02:29:55;16.63;;;5.63;;
15665;SDS011;20725;51.196;3.510;2023-08-08T02:32:36;23.30;;;6.40;;
15665;SDS011;20725;51.196;3.510;2023-08-08T02:35:20;15.83;;;6.37;;
15665;SDS011;20725;51.196;3.510;2023-08-08T02:38:00;11.70;;;5.63;;
15665;SDS011;20725;51.196;3.510;2023-08-08T02:40:45;18.97;;;6.53;;
15665;SDS011;20725;51.196;3.510;2023-08-08T02:43:49;13.27;;;6.47;;
15665;SDS011;20725;51.196;3.510;2023-08-08T02:49:44;17.33;;;6.70;;
15665;SDS011;20725;51.196;3.510;2023-08-08T02:52:26;18.03;;;6.13;;
15665;SDS011;20725;51.196;3.510;2023-08-08T02:55:11;19.87;;;6.33;;
15665;SDS011;20725;51.196;3.510;2023-08-08T02:57:43;17.17;;;6.47;;
15665;SDS011;20725;51.196;3.510;2023-08-08T03:03:30;12.83;;;6.47;;
15665;SDS011;20725;51.196;3.510;2023-08-08T03:15:19;15.83;;;6.43;;
15665;SDS011;20725;51.196;3.510;2023-08-08T03:17:46;17.73;;;6.57;;
15665;SDS011;20725;51.196;3.510;2023-08-08T03:20:39;14.07;;;5.80;;
15665;SDS011;20725;51.196;3.510;2023-08-08T03:26:06;12.47;;;6.13;;
15665;SDS011;20725;51.196;3.510;2023-08-08T03:28:39;18.13;;;6.70;;
15665;SDS011;20725;51.196;3.510;2023-08-08T03:47:07;8.47;;;6.03;;
15665;SDS011;20725;51.196;3.510;2023-08-08T03:49:57;15.83;;;6.10;;
15665;SDS011;20725;51.196;3.510;2023-08-08T03:55:48;16.10;;;6.30;;
15665;SDS011;20725;51.196;3.510;2023-08-08T03:58:17;17.03;;;7.20;;
15665;SDS011;20725;51.196;3.510;2023-08-08T04:10:37;16.60;;;6.30;;
15665;SDS011;20725;51.196;3.510;2023-08-08T04:25:52;16.20;;;6.13;;
15665;SDS011;20725;51.196;3.510;2023-08-08T04:35:11;11.23;;;6.47;;
15665;SDS011;20725;51.196;3.510;2023-08-08T05:02:39;20.00;;;7.03;;
15665;SDS011;20725;51.196;3.510;2023-08-08T05:09:20;11.77;;;6.43;;
15665;SDS011;20725;51.196;3.510;2023-08-08T05:11:20;20.77;;;6.67;;
15665;SDS011;20725;51.196;3.510;2023-08-08T06:18:56;13.00;;;5.27;;
15665;SDS011;20725;51.196;3.510;2023-08-08T06:30:53;10.80;;;4.63;;
15665;SDS011;20725;51.196;3.510;2023-08-08T06:33:50;7.23;;;4.37;;
15665;SDS011;20725;51.196;3.510;2023-08-08T06:42:45;14.87;;;4.47;;
15665;SDS011;20725;51.196;3.510;2023-08-08T06:45:23;11.13;;;4.97;;
15665;SDS011;20725;51.196;3.510;2023-08-08T06:48:04;9.13;;;5.00;;
15665;SDS011;20725;51.196;3.510;2023-08-08T06:50:45;15.57;;;4.73;;
15665;SDS011;20725;51.196;3.510;2023-08-08T06:54:41;7.07;;;4.13;;
15665;SDS011;20725;51.196;3.510;2023-08-08T06:56:45;11.67;;;4.30;;
15665;SDS011;20725;51.196;3.510;2023-08-08T06:59:35;10.57;;;4.20;;
15665;SDS011;20725;51.196;3.510;2023-08-08T07:02:12;10.17;;;4.40;;
15665;SDS011;20725;51.196;3.510;2023-08-08T07:04:45;10.83;;;4.93;;
15665;SDS011;20725;51.196;3.510;2023-08-08T07:11:10;9.67;;;4.80;;
15665;SDS011;20725;51.196;3.510;2023-08-08T07:23:19;10.30;;;4.20;;
15665;SDS011;20725;51.196;3.510;2023-08-08T07:26:09;12.07;;;4.63;;
15665;SDS011;20725;51.196;3.510;2023-08-08T07:28:42;10.93;;;4.60;;
15665;SDS011;20725;51.196;3.510;2023-08-08T07:34:19;5.60;;;3.63;;
15665;SDS011;20725;51.196;3.510;2023-08-08T07:37:05;10.23;;;4.67;;
15665;SDS011;20725;51.196;3.510;2023-08-08T07:39:56;9.90;;;4.10;;
15665;SDS011;20725;51.196;3.510;2023-08-08T07:42:37;11.33;;;4.83;;
15665;SDS011;20725;51.196;3.510;2023-08-08T07:45:14;10.13;;;3.80;;
15665;SDS011;20725;51.196;3.510;2023-08-08T07:48:00;10.50;;;4.83;;
15665;SDS011;20725;51.196;3.510;2023-08-08T07:53:45;8.73;;;4.23;;
15665;SDS011;20725;51.196;3.510;2023-08-08T07:56:13;8.83;;;4.00;;
15665;SDS011;20725;51.196;3.510;2023-08-08T07:58:51;9.17;;;4.40;;
15665;SDS011;20725;51.196;3.510;2023-08-08T08:01:41;11.30;;;4.30;;
15665;SDS011;20725;51.196;3.510;2023-08-08T08:04:40;10.33;;;4.70;;
15665;SDS011;20725;51.196;3.510;2023-08-08T08:09:55;8.70;;;4.70;;
15665;SDS011;20725;51.196;3.510;2023-08-08T08:12:36;7.23;;;4.17;;
15665;SDS011;20725;51.196;3.510;2023-08-08T08:15:07;5.57;;;4.07;;
15665;SDS011;20725;51.196;3.510;2023-08-08T08:17:43;10.87;;;4.77;;
15665;SDS011;20725;51.196;3.510;2023-08-08T08:20:18;9.00;;;4.23;;
15665;SDS011;20725;51.196;3.510;2023-08-08T08:22:46;6.43;;;4.00;;
15665;SDS011;20725;51.196;3.510;2023-08-08T08:25:21;9.47;;;4.43;;
15665;SDS011;20725;51.196;3.510;2023-08-08T08:27:48;6.80;;;3.80;;
15665;SDS011;20725;51.196;3.510;2023-08-08T08:30:16;7.60;;;4.33;;
15665;SDS011;20725;51.196;3.510;2023-08-08T08:32:49;6.10;;;3.57;;
15665;SDS011;20725;51.196;3.510;2023-08-08T08:35:25;10.07;;;4.37;;
15665;SDS011;20725;51.196;3.510;2023-08-08T08:38:06;6.30;;;3.73;;
15665;SDS011;20725;51.196;3.510;2023-08-08T08:40:38;6.97;;;3.83;;
15665;SDS011;20725;51.196;3.510;2023-08-08T08:43:16;7.50;;;3.70;;
15665;SDS011;20725;51.196;3.510;2023-08-08T08:45:49;5.40;;;3.23;;
15665;SDS011;20725;51.196;3.510;2023-08-08T08:48:26;6.43;;;3.47;;
15665;SDS011;20725;51.196;3.510;2023-08-08T08:50:55;8.07;;;3.47;;
15665;SDS011;20725;51.196;3.510;2023-08-08T08:56:39;5.43;;;3.23;;
15665;SDS011;20725;51.196;3.510;2023-08-08T08:59:56;7.23;;;3.37;;
15665;SDS011;20725;51.196;3.510;2023-08-08T09:05:35;6.93;;;2.90;;
15665;SDS011;20725;51.196;3.510;2023-08-08T09:08:07;5.70;;;2.43;;
15665;SDS011;20725;51.196;3.510;2023-08-08T09:20:10;2.23;;;1.33;;
15665;SDS011;20725;51.196;3.510;2023-08-08T09:22:53;2.60;;;1.60;;
15665;SDS011;20725;51.196;3.510;2023-08-08T09:28:58;7.70;;;2.23;;
15665;SDS011;20725;51.196;3.510;2023-08-08T09:31:51;5.33;;;1.80;;
15665;SDS011;20725;51.196;3.510;2023-08-08T09:34:23;5.57;;;1.80;;
15665;SDS011;20725;51.196;3.510;2023-08-08T09:49:45;3.27;;;1.40;;
15665;SDS011;20725;51.196;3.510;2023-08-08T10:24:36;1.53;;;1.23;;
15665;SDS011;20725;51.196;3.510;2023-08-08T10:27:10;3.67;;;1.30;;
15665;SDS011;20725;51.196;3.510;2023-08-08T10:32:07;2.37;;;1.07;;
15665;SDS011;20725;51.196;3.510;2023-08-08T10:36:17;3.73;;;1.10;;
15665;SDS011;20725;51.196;3.510;2023-08-08T10:38:57;2.30;;;1.40;;
15665;SDS011;20725;51.196;3.510;2023-08-08T10:41:50;2.07;;;1.20;;
15665;SDS011;20725;51.196;3.510;2023-08-08T14:24:18;2.90;;;1.90;;
15665;SDS011;20725;51.196;3.510;2023-08-08T14:34:05;3.43;;;2.10;;
15665;SDS011;20725;51.196;3.510;2023-08-08T14:36:39;3.07;;;1.50;;
15665;SDS011;20725;51.196;3.510;2023-08-08T15:00:17;2.70;;;2.10;;
15665;SDS011;20725;51.196;3.510;2023-08-08T15:05:46;3.47;;;2.30;;
15665;SDS011;20725;51.196;3.510;2023-08-08T15:08:26;3.37;;;2.50;;
15665;SDS011;20725;51.196;3.510;2023-08-08T15:11:17;2.77;;;2.37;;
15665;SDS011;20725;51.196;3.510;2023-08-08T15:14:11;3.40;;;3.03;;
15665;SDS011;20725;51.196;3.510;2023-08-08T15:29:41;4.10;;;2.90;;
15665;SDS011;20725;51.196;3.510;2023-08-08T15:51:35;8.97;;;3.17;;
15665;SDS011;20725;51.196;3.510;2023-08-08T15:54:09;8.83;;;3.10;;
15665;SDS011;20725;51.196;3.510;2023-08-08T15:56:53;5.87;;;3.33;;
15665;SDS011;20725;51.196;3.510;2023-08-08T16:02:22;6.90;;;4.20;;
15665;SDS011;20725;51.196;3.510;2023-08-08T16:08:29;6.13;;;3.20;;
15665;SDS011;20725;51.196;3.510;2023-08-08T16:12:22;4.03;;;3.50;;
15665;SDS011;20725;51.196;3.510;2023-08-08T16:14:00;7.23;;;3.93;;
15665;SDS011;20725;51.196;3.510;2023-08-08T16:16:44;4.53;;;3.27;;
15665;SDS011;20725;51.196;3.510;2023-08-08T16:19:26;5.53;;;3.27;;
15665;SDS011;20725;51.196;3.510;2023-08-08T16:22:37;3.33;;;2.57;;
15665;SDS011;20725;51.196;3.510;2023-08-08T16:25:26;8.17;;;3.00;;
15665;SDS011;20725;51.196;3.510;2023-08-08T16:31:09;3.43;;;2.97;;
15665;SDS011;20725;51.196;3.510;2023-08-08T16:33:59;5.73;;;3.23;;
15665;SDS011;20725;51.196;3.510;2023-08-08T16:36:47;5.20;;;3.37;;
15665;SDS011;20725;51.196;3.510;2023-08-08T16:39:32;6.53;;;3.33;;
15665;SDS011;20725;51.196;3.510;2023-08-08T16:45:06;3.60;;;3.17;;
15665;SDS011;20725;51.196;3.510;2023-08-08T16:47:39;6.83;;;3.20;;
15665;SDS011;20725;51.196;3.510;2023-08-08T16:50:26;6.40;;;3.73;;
15665;SDS011;20725;51.196;3.510;2023-08-08T16:54:34;5.83;;;3.20;;
15665;SDS011;20725;51.196;3.510;2023-08-08T16:56:14;6.70;;;3.00;;
15665;SDS011;20725;51.196;3.510;2023-08-08T16:58:53;3.80;;;2.97;;
15665;SDS011;20725;51.196;3.510;2023-08-08T17:10:38;6.00;;;3.37;;
15665;SDS011;20725;51.196;3.510;2023-08-08T17:13:31;5.97;;;3.37;;
15665;SDS011;20725;51.196;3.510;2023-08-08T17:19:16;4.17;;;3.63;;
15665;SDS011;20725;51.196;3.510;2023-08-08T17:28:06;6.60;;;3.60;;
15665;SDS011;20725;51.196;3.510;2023-08-08T17:37:19;5.20;;;2.53;;
15665;SDS011;20725;51.196;3.510;2023-08-08T17:43:15;3.20;;;2.63;;
15665;SDS011;20725;51.196;3.510;2023-08-08T17:52:42;5.90;;;2.70;;
15665;SDS011;20725;51.196;3.510;2023-08-08T18:04:35;3.20;;;2.77;;
15665;SDS011;20725;51.196;3.510;2023-08-08T18:13:42;4.03;;;3.40;;
15665;SDS011;20725;51.196;3.510;2023-08-08T18:16:28;4.07;;;3.40;;
15665;SDS011;20725;51.196;3.510;2023-08-08T18:19:29;3.90;;;3.27;;
15665;SDS011;20725;51.196;3.510;2023-08-08T18:25:23;6.10;;;3.80;;
15665;SDS011;20725;51.196;3.510;2023-08-08T18:28:08;5.57;;;3.70;;
15665;SDS011;20725;51.196;3.510;2023-08-08T18:31:09;5.00;;;4.10;;
15665;SDS011;20725;51.196;3.510;2023-08-08T18:33:42;7.90;;;4.20;;
15665;SDS011;20725;51.196;3.510;2023-08-08T18:36:16;7.57;;;4.40;;
15665;SDS011;20725;51.196;3.510;2023-08-08T18:39:09;5.37;;;4.07;;
15665;SDS011;20725;51.196;3.510;2023-08-08T18:41:39;6.47;;;4.27;;
15665;SDS011;20725;51.196;3.510;2023-08-08T18:44:19;6.10;;;4.53;;
15665;SDS011;20725;51.196;3.510;2023-08-08T18:46:51;5.67;;;4.50;;
15665;SDS011;20725;51.196;3.510;2023-08-08T18:49:21;6.30;;;4.50;;
15665;SDS011;20725;51.196;3.510;2023-08-08T18:51:52;5.40;;;4.63;;
15665;SDS011;20725;51.196;3.510;2023-08-08T18:54:30;5.77;;;4.63;;
15665;SDS011;20725;51.196;3.510;2023-08-08T19:00:12;7.13;;;5.20;;
15665;SDS011;20725;51.196;3.510;2023-08-08T19:02:46;7.87;;;5.47;;
15665;SDS011;20725;51.196;3.510;2023-08-08T19:05:25;7.80;;;5.57;;
15665;SDS011;20725;51.196;3.510;2023-08-08T19:15:36;7.93;;;4.57;;
15665;SDS011;20725;51.196;3.510;2023-08-08T19:17:21;6.20;;;4.50;;
15665;SDS011;20725;51.196;3.510;2023-08-08T19:19:58;7.57;;;4.90;;
15665;SDS011;20725;51.196;3.510;2023-08-08T19:22:54;5.63;;;4.77;;
15665;SDS011;20725;51.196;3.510;2023-08-08T19:25:46;7.93;;;4.83;;
15665;SDS011;20725;51.196;3.510;2023-08-08T19:28:28;10.17;;;5.10;;
15665;SDS011;20725;51.196;3.510;2023-08-08T19:31:13;7.30;;;5.40;;
15665;SDS011;20725;51.196;3.510;2023-08-08T19:33:53;6.23;;;5.40;;
15665;SDS011;20725;51.196;3.510;2023-08-08T19:36:29;7.90;;;5.23;;
15665;SDS011;20725;51.196;3.510;2023-08-08T19:42:28;7.80;;;4.60;;
15665;SDS011;20725;51.196;3.510;2023-08-08T19:45:14;5.37;;;4.93;;
15665;SDS011;20725;51.196;3.510;2023-08-08T19:54:08;8.13;;;5.03;;
15665;SDS011;20725;51.196;3.510;2023-08-08T19:56:39;8.57;;;4.83;;
15665;SDS011;20725;51.196;3.510;2023-08-08T19:59:07;8.50;;;4.77;;
15665;SDS011;20725;51.196;3.510;2023-08-08T20:01:56;7.20;;;4.63;;
15665;SDS011;20725;51.196;3.510;2023-08-08T20:04:24;8.13;;;5.03;;
15665;SDS011;20725;51.196;3.510;2023-08-08T20:06:57;8.53;;;4.80;;
15665;SDS011;20725;51.196;3.510;2023-08-08T20:12:12;5.43;;;4.23;;
15665;SDS011;20725;51.196;3.510;2023-08-08T20:14:51;9.30;;;4.90;;
15665;SDS011;20725;51.196;3.510;2023-08-08T20:17:39;8.23;;;4.63;;
15665;SDS011;20725;51.196;3.510;2023-08-08T20:20:13;5.40;;;4.87;;
15665;SDS011;20725;51.196;3.510;2023-08-08T20:22:46;5.70;;;5.00;;
15665;SDS011;20725;51.196;3.510;2023-08-08T20:34:12;8.77;;;4.90;;
15665;SDS011;20725;51.196;3.510;2023-08-08T20:39:52;11.23;;;5.30;;
15665;SDS011;20725;51.196;3.510;2023-08-08T20:42:36;6.53;;;4.87;;
15665;SDS011;20725;51.196;3.510;2023-08-08T20:45:10;8.23;;;4.63;;
15665;SDS011;20725;51.196;3.510;2023-08-08T20:47:53;6.70;;;4.90;;
15665;SDS011;20725;51.196;3.510;2023-08-08T20:57:05;12.17;;;6.07;;
15665;SDS011;20725;51.196;3.510;2023-08-08T20:59:32;8.80;;;5.60;;
15665;SDS011;20725;51.196;3.510;2023-08-08T21:02:12;10.03;;;5.60;;
15665;SDS011;20725;51.196;3.510;2023-08-08T21:04:54;9.80;;;6.50;;
15665;SDS011;20725;51.196;3.510;2023-08-08T21:07:29;11.53;;;6.93;;
15665;SDS011;20725;51.196;3.510;2023-08-08T21:09:57;12.97;;;6.93;;
15665;SDS011;20725;51.196;3.510;2023-08-08T21:12:47;11.30;;;8.57;;
15665;SDS011;20725;51.196;3.510;2023-08-08T21:15:23;13.43;;;8.27;;
15665;SDS011;20725;51.196;3.510;2023-08-08T21:21:01;19.30;;;10.73;;
15665;SDS011;20725;51.196;3.510;2023-08-08T21:23:45;15.80;;;9.20;;
15665;SDS011;20725;51.196;3.510;2023-08-08T21:26:33;19.87;;;9.67;;
15665;SDS011;20725;51.196;3.510;2023-08-08T21:29:30;13.57;;;9.43;;
15665;SDS011;20725;51.196;3.510;2023-08-08T21:31:58;13.00;;;9.83;;
15665;SDS011;20725;51.196;3.510;2023-08-08T21:34:42;11.30;;;9.20;;
15665;SDS011;20725;51.196;3.510;2023-08-08T21:37:44;13.40;;;9.03;;
15665;SDS011;20725;51.196;3.510;2023-08-08T21:40:22;12.57;;;8.97;;
15665;SDS011;20725;51.196;3.510;2023-08-08T21:43:17;12.27;;;9.70;;
15665;SDS011;20725;51.196;3.510;2023-08-08T21:51:56;13.10;;;9.03;;
15665;SDS011;20725;51.196;3.510;2023-08-08T21:54:38;16.77;;;9.50;;
15665;SDS011;20725;51.196;3.510;2023-08-08T21:57:20;17.30;;;9.60;;
15665;SDS011;20725;51.196;3.510;2023-08-08T21:59:58;16.57;;;9.90;;
15665;SDS011;20725;51.196;3.510;2023-08-08T22:02:28;15.13;;;9.93;;
15665;SDS011;20725;51.196;3.510;2023-08-08T22:05:05;11.10;;;9.70;;
15665;SDS011;20725;51.196;3.510;2023-08-08T22:07:59;15.07;;;10.37;;
15665;SDS011;20725;51.196;3.510;2023-08-08T22:10:38;13.83;;;10.43;;
15665;SDS011;20725;51.196;3.510;2023-08-08T22:13:18;15.30;;;12.17;;
15665;SDS011;20725;51.196;3.510;2023-08-08T22:15:58;15.87;;;12.17;;
15665;SDS011;20725;51.196;3.510;2023-08-08T22:18:57;18.70;;;12.77;;
15665;SDS011;20725;51.196;3.510;2023-08-08T22:27:22;13.00;;;11.50;;
15665;SDS011;20725;51.196;3.510;2023-08-08T22:30:03;19.37;;;11.17;;
15665;SDS011;20725;51.196;3.510;2023-08-08T22:35:39;19.73;;;11.57;;
15665;SDS011;20725;51.196;3.510;2023-08-08T22:41:44;13.47;;;11.43;;
15665;SDS011;20725;51.196;3.510;2023-08-08T22:44:27;17.10;;;10.67;;
15665;SDS011;20725;51.196;3.510;2023-08-08T22:47:24;17.00;;;11.63;;
15665;SDS011;20725;51.196;3.510;2023-08-08T22:50:32;17.20;;;10.73;;
15665;SDS011;20725;51.196;3.510;2023-08-08T22:53:20;17.03;;;10.87;;
15665;SDS011;20725;51.196;3.510;2023-08-08T22:56:06;16.47;;;11.07;;
15665;SDS011;20725;51.196;3.510;2023-08-08T23:01:33;15.30;;;11.70;;
15665;SDS011;20725;51.196;3.510;2023-08-08T23:14:02;17.93;;;11.93;;
15665;SDS011;20725;51.196;3.510;2023-08-08T23:16:33;17.30;;;12.40;;
15665;SDS011;20725;51.196;3.510;2023-08-08T23:19:03;16.80;;;12.50;;
15665;SDS011;20725;51.196;3.510;2023-08-08T23:21:51;15.47;;;13.23;;
15665;SDS011;20725;51.196;3.510;2023-08-08T23:24:35;20.23;;;12.73;;
15665;SDS011;20725;51.196;3.510;2023-08-08T23:27:09;17.00;;;13.27;;
15665;SDS011;20725;51.196;3.510;2023-08-08T23:29:44;17.87;;;12.93;;
15665;SDS011;20725;51.196;3.510;2023-08-08T23:32:31;14.97;;;13.03;;
15665;SDS011;20725;51.196;3.510;2023-08-08T23:35:24;26.37;;;13.43;;
15665;SDS011;20725;51.196;3.510;2023-08-08T23:37:55;16.87;;;12.87;;
15665;SDS011;20725;51.196;3.510;2023-08-08T23:40:41;21.63;;;14.40;;
15665;SDS011;20725;51.196;3.510;2023-08-08T23:43:10;14.97;;;13.27;;
15665;SDS011;20725;51.196;3.510;2023-08-08T23:45:42;23.73;;;13.77;;
15665;SDS011;20725;51.196;3.510;2023-08-08T23:48:28;17.57;;;14.20;;
15665;SDS011;20725;51.196;3.510;2023-08-08T23:51:02;20.23;;;13.73;;
15665;SDS011;20725;51.196;3.510;2023-08-08T23:53:46;20.30;;;13.63;;
15665;SDS011;20725;51.196;3.510;2023-08-08T23:56:13;25.30;;;15.43;;
15665;SDS011;20725;51.196;3.510;2023-08-08T23:58:47;18.43;;;13.63;;
